Tower City, ND (58071)

10:57 AM CDT on May 05, 2015 (GMT -0500)
Home of the Absaraka Crows | | Change Station
CLOSE
Current Station
Personal Weather Station
Location: Absaraka, ND
Elevation: 1066 ft
Nearby Weather Stations

Elev 1066 ft 46.98 °N, 97.39 °W | Updated 0 second ago

Clear
Clear
70.5 °F
Feels Like 75 °F
N
11.4
Wind Variable Wind from South
Gusts 14.5 mph

Today
High -- | Low -- °F
--% Chance of Precip.
Yesterday
High -- | Low -- °F
Precip. -- in
6:09 AM 8:45 PM
Full, 98% visible
Pressure 30.14 in
Visibility 10.0 miles
Clouds Clear
Heat Index 75 °F
Dew Point 30 °F
Humidity 22%
Rainfall 0.00 in
Snow Depth Not available.
UV 6 out of 12
Pollen 10.90 out of 12
Air Quality Not available.
Flu Activity Regional
METAR KBAC 051535Z AUTO 16018G24KT 10SM CLR 18/M02 A3014 RMK AO2

More Conditions Fewer Conditions

Pressure 30.14 in
Visibility 10.0 miles
Clouds Clear
Heat Index 75 °F
Dew Point 30 °F
Humidity 22%
Rainfall 0.00 in
Snow Depth Not available.
UV 6 out of 12
Pollen 10.90 out of 12
Air Quality Not available.
Flu Activity Regional
METAR KBAC 051535Z AUTO 16018G24KT 10SM CLR 18/M02 A3014 RMK AO2

More Conditions Fewer Conditions

10-Day Weather Forecast

Almanac

Astronomy

May. 05, 2015 Rise Set
Actual Time
Civil Twilight
Nautical Twilight
Astronomical Twilight
Moon
Length of Visible Light
Length of Day
Tomorrow will be .
, % of the Moon is Illuminated

Today's Extremes

State Highs State Lows

Community

WunderPhotos

Upload Photos

1,818,922 photos uploaded!

WunderBlogs® & News

Nearby

Air Quality

  Air Quality AQ Index Pollutant
Not available.

Snow Depth

Station Depth Elevation

Earthquake Activity

City Distance Mag. Time & Date
Minimum magnitude displayed is 2.5.

Coastal Water Temperatures

Place Temperature

Stations

Nearby Weather Stations

Station Location Temp. Windchill Dew Point Humidity Wind Precip. Elev Updated Type